Astoria, SD

10:56 AM CDT on July 29, 2015 (GMT -0500)
QUINN FARM | | Change Station
CLOSE
Current Station
Personal Weather Station
Location: White, SD
Elevation: 1699 ft
Nearby Weather Stations
Active Advisory: Wind Advisory

Elev 1699 ft 44.36 °N, 96.65 °W | Updated 13 minutes ago

Clear
Clear
73.6 °F
Feels Like 77 °F
N
17.7
Wind Variable Wind from WSW

Today
High -- | Low -- °F
--% Chance of Precip.
Yesterday
High -- | Low -- °F
Precip. -- in
6:09 AM 8:55 PM
Waxing Gibbous, 96% visible
Pressure 30.04 in
Visibility 10.0 miles
Clouds Clear
Heat Index 77 °F
Dew Point 55 °F
Humidity 52%
Rainfall 0.00 in
Snow Depth Not available.
UV 6 out of 12
Pollen 6.70 out of 12
Air Quality Not available.
Flu Activity Not available.
METAR KCNB 291534Z AUTO 26014G22KT 10SM CLR 23/10 A3004 RMK AO2 T02310104

More Conditions Fewer Conditions

Pressure 30.04 in
Visibility 10.0 miles
Clouds Clear
Heat Index 77 °F
Dew Point 55 °F
Humidity 52%
Rainfall 0.00 in
Snow Depth Not available.
UV 6 out of 12
Pollen 6.70 out of 12
Air Quality Not available.
Flu Activity Not available.
METAR KCNB 291534Z AUTO 26014G22KT 10SM CLR 23/10 A3004 RMK AO2 T02310104

More Conditions Fewer Conditions

10-Day Weather Forecast

×

Almanac

Astronomy

Jul. 29, 2015 Rise Set
Actual Time
Civil Twilight
Nautical Twilight
Astronomical Twilight
Moon
Length of Visible Light
Length of Day
Tomorrow will be .
, % of the Moon is Illuminated

Today's Extremes

State Highs State Lows

Community

WunderPhotos

Upload Photos

1,842,120 photos uploaded!

WunderBlogs® & News

Nearby

Air Quality

  Air Quality AQ Index Pollutant
Not available.

Snow Depth

Station Depth Elevation

Earthquake Activity

City Distance Mag. Time & Date
Minimum magnitude displayed is 2.5.

Coastal Water Temperatures

Place Temperature

Stations

Nearby Weather Stations

Station Location Temp. Windchill Dew Point Humidity Wind Precip. Elev Updated Type
                   
Wind Advisory
Statement as of 3:00 AM CDT on July 29, 2015

... Wind Advisory in effect from 10 am this morning to 7 PM CDT
this evening...

The National Weather Service in Aberdeen has issued a Wind
Advisory... which is in effect from 10 am this morning to 7 PM CDT
this evening.

* Timing... mid morning through the afternoon.

* Winds... west at 20 to 30mph with gusts to 45mph.

* Impacts... travel may become difficult for high profile vehicles.

Precautionary/preparedness actions...

A Wind Advisory means that sustained winds of 30 mph or higher
are expected. Winds this strong can make driving difficult...
especially for high profile vehicles. Use extra caution.



Connelly